Time;durP1;ratioP1;P1;durP2;ratioP2;P2;SDS_P1;SDS_P2;PMS_P1;PMS_P2;Temp;Humidity;BMP_temperature;BMP_pressure;BME280_temperature;BME280_humidity;BME280_pressure;Samples;Min_cycle;Max_cycle;Signal;HPM_P1;HPM_P2
2023/12/15 00:00:24;;;;;;;;;;;;;;;5.83;100.00;100876.94;4984980;28;19922;-86
2023/12/15 00:02:52;;;;;;;;;;;;;;;5.87;100.00;100880.44;4967510;28;20132;-82
2023/12/15 00:05:17;;;;;;;;;;;;;;;5.85;100.00;100879.56;4983813;28;20330;-82
2023/12/15 00:07:42;;;;;;;;;;;;;;;5.87;100.00;100869.94;4967115;28;19944;-83
2023/12/15 00:10:08;;;;;;;;;;;;;;;5.74;100.00;100870.88;4984900;28;20012;-82
2023/12/15 00:12:33;;;;;;;;;;;;;;;5.78;100.00;100875.25;4983140;28;19918;-82
2023/12/15 00:14:59;;;;;;;;;;;;;;;5.76;100.00;100882.25;4967028;28;19919;-84
2023/12/15 00:17:24;;;;;;;;;;;;;;;5.63;100.00;100884.97;4984319;28;20034;-87
2023/12/15 00:19:56;;;;;;;;;;;;;;;5.61;100.00;100883.19;4986298;28;20020;-89
2023/12/15 00:22:21;;;;;;;;;;;;;;;5.62;100.00;100890.22;4969099;28;19929;-85
2023/12/15 00:24:47;;;;;;;;;;;;;;;5.64;100.00;100888.44;4984619;28;19917;-83
2023/12/15 00:27:12;;;;;;;;;;;;;;;5.61;100.00;100884.06;4984245;28;19922;-83
2023/12/15 00:29:38;;;;;;;;;;;;;;;5.55;100.00;100881.50;4966690;28;19921;-84
2023/12/15 00:32:03;;;;;;;;;;;;;;;5.53;100.00;100891.13;4984195;28;19922;-83
2023/12/15 00:34:28;;;;;;;;;;;;;;;5.48;100.00;100887.66;4982443;28;19922;-83
2023/12/15 00:36:54;;;;;;;;;;;;;;;5.49;100.00;100893.78;4966123;28;19929;-82
2023/12/15 00:39:19;;;;;;;;;;;;;;;5.46;100.00;100884.16;4983635;28;20369;-83
2023/12/15 00:41:44;;;;;;;;;;;;;;;5.48;100.00;100895.53;4983642;28;20009;-84
2023/12/15 00:44:09;;;;;;;;;;;;;;;5.44;100.00;100892.06;4963827;28;19922;-85
2023/12/15 00:46:35;;;;;;;;;;;;;;;5.43;100.00;100892.06;4984394;28;19929;-84
2023/12/15 00:49:00;;;;;;;;;;;;;;;5.41;100.00;100896.47;4983433;28;19922;-82
2023/12/15 00:51:25;;;;;;;;;;;;;;;5.34;100.00;100902.59;4966188;28;20012;-85
2023/12/15 00:53:50;;;;;;;;;;;;;;;5.43;100.00;100899.94;4982349;28;20358;-82
2023/12/15 00:56:16;;;;;;;;;;;;;;;5.37;100.00;100899.97;4983540;28;19957;-82
2023/12/15 00:58:41;;;;;;;;;;;;;;;6.34;100.00;100910.84;4982418;28;19917;-89
2023/12/15 01:01:06;;;;;;;;;;;;;;;5.94;100.00;100918.97;4966385;28;19918;-86
2023/12/15 06:20:51;;;;;;;;;;;;;;;4.72;100.00;101233.59;5623307;23;19993;-81
2023/12/15 06:23:18;;;;;;;;;;;;;;;4.78;100.00;101240.63;4981688;28;19933;-82
2023/12/15 06:25:44;;;;;;;;;;;;;;;4.78;100.00;101238.88;4982547;28;19925;-81
2023/12/15 06:28:09;;;;;;;;;;;;;;;4.77;100.00;101234.50;4982329;28;19921;-80
2023/12/15 06:30:36;;;;;;;;;;;;;;;4.77;100.00;101239.75;4983072;28;19918;-81
2023/12/15 06:33:01;;;;;;;;;;;;;;;4.80;100.00;101237.13;4982497;28;19918;-82
2023/12/15 06:35:27;;;;;;;;;;;;;;;4.74;100.00;101245.00;4984454;28;19949;-84
2023/12/15 06:37:52;;;;;;;;;;;;;;;4.83;100.00;101245.00;4986148;28;19917;-82
2023/12/15 06:40:17;;;;;;;;;;;;;;;4.75;100.00;101241.47;4986477;28;19924;-84
2023/12/15 06:42:42;;;;;;;;;;;;;;;4.70;100.00;101244.09;4986207;28;19918;-84
2023/12/15 06:45:08;;;;;;;;;;;;;;;4.67;100.00;101240.56;4968772;28;19961;-85
2023/12/15 06:47:35;;;;;;;;;;;;;;;4.71;100.00;101242.34;4986082;28;19922;-84
2023/12/15 06:50:00;;;;;;;;;;;;;;;4.74;100.00;101242.38;4984605;28;20169;-84
2023/12/15 06:52:25;;;;;;;;;;;;;;;4.75;100.00;101244.09;4985575;28;19965;-86
2023/12/15 06:54:50;;;;;;;;;;;;;;;4.75;100.00;101246.72;4985589;28;20442;-84
2023/12/15 06:57:16;;;;;;;;;;;;;;;4.69;100.00;101258.09;4986032;28;19925;-88
2023/12/15 06:59:41;;;;;;;;;;;;;;;4.71;100.00;101258.13;4985934;28;19928;-84
2023/12/15 07:02:06;;;;;;;;;;;;;;;4.76;100.00;101266.88;4985707;28;19964;-86
2023/12/15 07:04:31;;;;;;;;;;;;;;;4.73;100.00;101269.50;4985468;28;19918;-87
2023/12/15 07:06:56;;;;;;;;;;;;;;;4.78;100.00;101266.88;4984750;28;19925;-89
2023/12/15 07:09:22;;;;;;;;;;;;;;;4.77;100.00;101268.66;4968529;28;20009;-83
2023/12/15 07:11:47;;;;;;;;;;;;;;;4.72;100.00;101271.25;4985259;28;20013;-84
2023/12/15 07:14:12;;;;;;;;;;;;;;;4.68;100.00;101271.22;4985237;28;19929;-83
2023/12/15 07:16:37;;;;;;;;;;;;;;;4.74;100.00;101276.50;4985736;28;19924;-93
2023/12/15 07:19:03;;;;;;;;;;;;;;;4.79;100.00;101281.78;4985645;28;19929;-91
2023/12/15 07:21:28;;;;;;;;;;;;;;;4.79;100.00;101285.28;4983568;28;19922;-88
2023/12/15 07:23:53;;;;;;;;;;;;;;;4.70;100.00;101296.59;4968004;28;19924;-93
2023/12/15 07:26:19;;;;;;;;;;;;;;;4.75;100.00;101287.88;4967681;28;20274;-85
2023/12/15 07:28:44;;;;;;;;;;;;;;;4.67;100.00;101293.09;4968403;28;20270;-89
2023/12/15 07:31:09;;;;;;;;;;;;;;;4.69;100.00;101299.22;4980395;28;19922;-87
2023/12/15 07:33:34;;;;;;;;;;;;;;;4.66;100.00;101302.72;4985283;28;19918;-88
2023/12/15 07:36:00;;;;;;;;;;;;;;;4.60;100.00;101307.94;4983522;28;19922;-88
2023/12/15 07:38:25;;;;;;;;;;;;;;;4.65;100.00;101324.59;4984862;28;19957;-84
2023/12/15 07:40:54;;;;;;;;;;;;;;;4.66;100.00;101320.19;4985486;28;19972;-84
2023/12/15 07:43:19;;;;;;;;;;;;;;;4.72;100.00;101325.50;4984686;28;19965;-86
2023/12/15 07:45:44;;;;;;;;;;;;;;;4.71;100.00;101329.88;4984481;28;19975;-84
2023/12/15 07:48:10;;;;;;;;;;;;;;;4.65;100.00;101324.59;4985278;28;19976;-84
2023/12/15 07:50:36;;;;;;;;;;;;;;;4.66;100.00;101330.69;4983835;28;19922;-83
2023/12/15 07:53:01;;;;;;;;;;;;;;;4.70;100.00;101335.13;4983490;28;19918;-89
2023/12/15 07:55:27;;;;;;;;;;;;;;;4.74;100.00;101336.91;4984780;28;20373;-89
2023/12/15 07:57:52;;;;;;;;;;;;;;;4.68;100.00;101340.38;4985068;28;20262;-89
2023/12/15 08:00:17;;;;;;;;;;;;;;;4.63;100.00;101338.59;4984443;28;19918;-91
2023/12/15 08:02:44;;;;;;;;;;;;;;;4.72;100.00;101336.00;4984549;28;19921;-91
2023/12/15 08:51:43;;;;;;;;;;;;;;;4.64;100.00;101395.47;4972956;28;19929;-83
2023/12/15 08:54:09;;;;;;;;;;;;;;;4.55;100.00;101398.91;4973709;28;20308;-86
2023/12/15 08:56:34;;;;;;;;;;;;;;;4.57;100.00;101406.81;4973747;28;20254;-81
2023/12/15 08:58:59;;;;;;;;;;;;;;;4.60;100.00;101409.47;4973900;28;19921;-88
2023/12/15 09:01:24;;;;;;;;;;;;;;;4.56;100.00;101419.03;4974200;28;19918;-88
2023/12/15 09:03:50;;;;;;;;;;;;;;;4.59;100.00;101418.19;4973099;28;19984;-89
2023/12/15 09:06:15;;;;;;;;;;;;;;;4.57;100.00;101420.81;4973838;28;19914;-83
2023/12/15 09:08:41;;;;;;;;;;;;;;;4.55;100.00;101412.91;4973889;28;19922;-82
2023/12/15 09:11:12;;;;;;;;;;;;;;;4.52;100.00;101426.00;4973091;28;20304;-89
2023/12/15 09:13:37;;;;;;;;;;;;;;;4.54;100.00;101421.66;4972995;28;19918;-83
2023/12/15 09:16:02;;;;;;;;;;;;;;;4.59;100.00;101415.56;4973602;28;20387;-86
2023/12/15 09:18:28;;;;;;;;;;;;;;;4.60;100.00;101425.22;4972412;28;19953;-82
2023/12/15 09:20:55;;;;;;;;;;;;;;;4.53;100.00;101430.41;4973801;28;19918;-85
2023/12/15 09:25:56;;;;;;;;;;;;;;;4.61;100.00;101433.09;4970063;23;20275;-87
2023/12/15 09:28:22;;;;;;;;;;;;;;;4.63;100.00;101438.38;4964195;28;19922;-87
2023/12/15 09:30:47;;;;;;;;;;;;;;;4.63;100.00;101446.25;4962826;28;19918;-87
2023/12/15 09:33:12;;;;;;;;;;;;;;;4.64;100.00;101448.88;4962572;28;20021;-89
2023/12/15 09:35:37;;;;;;;;;;;;;;;4.65;100.00;101465.50;4963531;28;19919;-88
2023/12/15 09:41:08;;;;;;;;;;;;;;;4.59;100.00;101460.19;4952921;28;20013;-90
2023/12/15 09:43:34;;;;;;;;;;;;;;;4.54;100.00;101470.66;4963844;28;19954;-87
2023/12/15 09:45:59;;;;;;;;;;;;;;;4.60;100.00;101468.09;4963737;28;19918;-86
2023/12/15 09:48:27;;;;;;;;;;;;;;;4.65;100.00;101469.00;4960911;28;19918;-85
2023/12/15 09:51:09;;;;;;;;;;;;;;;4.61;100.00;101468.97;4965708;28;19957;-94
2023/12/15 09:53:52;;;;;;;;;;;;;;;4.52;100.00;101485.53;4964140;28;20008;-95
2023/12/15 09:56:18;;;;;;;;;;;;;;;4.51;100.00;101491.63;4979396;28;19945;-89
2023/12/15 09:58:46;;;;;;;;;;;;;;;4.55;100.00;101496.06;4964272;28;20443;-96
2023/12/15 10:01:12;;;;;;;;;;;;;;;4.52;100.00;101499.53;4922350;29;20146;-88
2023/12/15 10:03:37;;;;;;;;;;;;;;;4.58;100.00;101490.84;4921850;29;19919;-91
2023/12/15 10:06:03;;;;;;;;;;;;;;;4.53;100.00;101492.50;4923268;29;20919;-86
2023/12/15 10:08:40;;;;;;;;;;;;;;;4.54;100.00;101500.41;4923392;29;20422;-89
2023/12/15 10:11:05;;;;;;;;;;;;;;;4.57;100.00;101503.94;4926201;29;19923;-86
2023/12/15 10:13:33;;;;;;;;;;;;;;;4.50;100.00;101509.13;4926413;29;20259;-88
2023/12/15 10:15:59;;;;;;;;;;;;;;;4.48;100.00;101510.88;4926498;29;19926;-86
2023/12/15 10:18:24;;;;;;;;;;;;;;;4.52;100.00;101514.41;4925102;29;19927;-89
2023/12/15 10:20:49;;;;;;;;;;;;;;;4.51;100.00;101521.38;4926460;29;19925;-89
2023/12/15 10:23:14;;;;;;;;;;;;;;;4.53;100.00;101513.53;4910525;29;19934;-87
2023/12/15 10:25:47;;;;;;;;;;;;;;;4.62;100.00;101515.38;4944268;28;20448;-86
2023/12/15 10:28:15;;;;;;;;;;;;;;;4.50;100.00;101510.88;4965832;28;19922;-86
2023/12/15 10:30:41;;;;;;;;;;;;;;;4.47;100.00;101509.09;4965731;28;19946;-89
2023/12/15 10:33:06;;;;;;;;;;;;;;;4.54;100.00;101518.78;4965645;28;19918;-88
2023/12/15 10:35:31;;;;;;;;;;;;;;;4.50;100.00;101514.38;4966806;28;20286;-86
2023/12/15 10:37:57;;;;;;;;;;;;;;;4.49;100.00;101517.00;4965488;28;19923;-87
2023/12/15 10:40:22;;;;;;;;;;;;;;;4.53;100.00;101517.03;4966970;28;19980;-88
2023/12/15 10:42:58;;;;;;;;;;;;;;;4.54;100.00;101525.78;4965488;28;19922;-88
2023/12/15 10:45:24;;;;;;;;;;;;;;;4.65;100.00;101518.03;4966843;28;20391;-88
2023/12/15 10:47:50;;;;;;;;;;;;;;;4.52;100.00;101520.53;4965327;28;19969;-87
2023/12/15 10:50:15;;;;;;;;;;;;;;;4.57;100.00;101519.69;4966211;28;19954;-86
2023/12/15 10:52:42;;;;;;;;;;;;;;;4.54;100.00;101529.28;4966602;28;19919;-86
2023/12/15 10:55:08;;;;;;;;;;;;;;;4.53;100.00;101530.19;4964815;28;19929;-87
2023/12/15 10:57:34;;;;;;;;;;;;;;;4.52;100.00;101531.03;4965443;28;19973;-87
2023/12/15 11:00:00;;;;;;;;;;;;;;;4.56;100.00;101534.56;4966241;28;19922;-89
2023/12/15 11:02:28;;;;;;;;;;;;;;;4.53;100.00;101530.19;4964342;28;19919;-87
2023/12/15 11:04:55;;;;;;;;;;;;;;;4.54;100.00;101529.28;4973152;28;20012;-88
2023/12/15 11:07:21;;;;;;;;;;;;;;;4.52;100.00;101531.03;4966412;28;20073;-88
2023/12/15 11:09:46;;;;;;;;;;;;;;;4.54;100.00;101531.03;4965790;28;19919;-87
2023/12/15 11:12:21;;;;;;;;;;;;;;;4.62;100.00;101521.50;4965800;28;19922;-88
2023/12/15 11:14:51;;;;;;;;;;;;;;;4.52;100.00;101523.16;4965246;28;19925;-89
2023/12/15 11:17:16;;;;;;;;;;;;;;;4.51;100.00;101529.25;4962304;28;19923;-87
2023/12/15 11:19:41;;;;;;;;;;;;;;;4.47;100.00;101540.59;4965605;28;19925;-89
2023/12/15 11:22:08;;;;;;;;;;;;;;;4.45;100.00;101541.44;4966207;28;19925;-88
2023/12/15 11:24:36;;;;;;;;;;;;;;;4.55;100.00;101541.56;4964448;28;19922;-88
2023/12/15 11:27:01;;;;;;;;;;;;;;;4.50;100.00;101553.78;4965964;28;19957;-92
2023/12/15 11:29:33;;;;;;;;;;;;;;;4.57;100.00;101549.44;4967279;28;20382;-87
2023/12/15 11:32:18;;;;;;;;;;;;;;;4.45;100.00;101550.22;4962708;28;20479;-89
2023/12/15 11:34:43;;;;;;;;;;;;;;;4.47;100.00;101550.25;4965600;28;19925;-88
2023/12/15 11:37:10;;;;;;;;;;;;;;;4.46;100.00;101553.72;4963964;28;19922;-88
2023/12/15 11:39:36;;;;;;;;;;;;;;;4.50;100.00;101561.66;4965639;28;19926;-88
2023/12/15 11:42:01;;;;;;;;;;;;;;;4.52;100.00;101554.66;4972241;28;20010;-88
2023/12/15 11:44:28;;;;;;;;;;;;;;;4.52;100.00;101552.03;4965521;28;20418;-87
2023/12/15 11:46:56;;;;;;;;;;;;;;;4.53;100.00;101551.19;4965389;28;19928;-86
2023/12/15 11:50:04;;;;;;;;;;;;;;;4.44;100.00;101550.22;4965074;28;19925;-90
2023/12/15 11:52:31;;;;;;;;;;;;;;;4.49;100.00;101554.63;4933510;29;20390;-87
2023/12/15 11:54:57;;;;;;;;;;;;;;;4.52;100.00;101554.66;4934538;29;19925;-92
2023/12/15 11:57:22;;;;;;;;;;;;;;;4.53;100.00;101553.81;4940637;28;19922;-87
2023/12/15 12:02:51;;;;;;;;;;;;;;;4.45;100.00;101546.69;5010375;23;19972;-91
2023/12/15 12:05:16;;;;;;;;;;;;;;;4.55;100.00;101548.56;4964034;28;19965;-87
2023/12/15 12:07:41;;;;;;;;;;;;;;;4.61;100.00;101543.38;4963745;28;19926;-87
2023/12/15 12:10:10;;;;;;;;;;;;;;;4.53;100.00;101559.06;4965207;28;19976;-91
2023/12/15 12:12:38;;;;;;;;;;;;;;;4.48;100.00;101563.38;4966090;28;19926;-94
2023/12/15 12:15:05;;;;;;;;;;;;;;;4.46;100.00;101561.59;4964669;28;20005;-92
2023/12/15 12:17:40;;;;;;;;;;;;;;;4.50;100.00;101566.00;4962910;28;20267;-87
2023/12/15 12:20:06;;;;;;;;;;;;;;;4.47;100.00;101571.25;4963406;28;19918;-87
2023/12/15 12:22:38;;;;;;;;;;;;;;;4.50;100.00;101572.16;4965187;28;19925;-87
2023/12/15 12:25:04;;;;;;;;;;;;;;;4.52;100.00;101570.41;4964221;28;19964;-90
2023/12/15 12:27:30;;;;;;;;;;;;;;;4.48;100.00;101578.22;4964484;28;19923;-86
2023/12/15 12:29:55;;;;;;;;;;;;;;;4.53;100.00;101571.28;4964635;28;19987;-85
2023/12/15 12:32:22;;;;;;;;;;;;;;;4.54;100.00;101581.78;4963232;28;19929;-88
2023/12/15 12:34:47;;;;;;;;;;;;;;;4.54;100.00;101584.41;4964938;28;19918;-87
2023/12/15 12:37:14;;;;;;;;;;;;;;;4.48;100.00;101600.13;4964451;28;20274;-87
2023/12/15 12:39:39;;;;;;;;;;;;;;;4.59;100.00;101604.59;4964556;28;19918;-88
2023/12/15 12:42:05;;;;;;;;;;;;;;;4.50;100.00;101606.28;4964189;28;19925;-85
2023/12/15 12:44:30;;;;;;;;;;;;;;;4.46;100.00;101604.47;4964604;28;19919;-90
2023/12/15 12:46:58;;;;;;;;;;;;;;;4.52;100.00;101609.78;4964363;28;19925;-88
2023/12/15 12:49:25;;;;;;;;;;;;;;;4.52;100.00;101604.53;4961795;28;19961;-88
2023/12/15 12:51:53;;;;;;;;;;;;;;;4.47;100.00;101606.25;4964837;28;19918;-89
2023/12/15 12:54:18;;;;;;;;;;;;;;;4.50;100.00;101598.41;4964179;28;19918;-88
2023/12/15 12:56:44;;;;;;;;;;;;;;;4.54;100.00;101608.06;4962643;28;19928;-88
2023/12/15 12:59:10;;;;;;;;;;;;;;;4.57;100.00;101603.72;4963346;28;19923;-87
2023/12/15 13:01:35;;;;;;;;;;;;;;;4.50;100.00;101613.25;4963328;28;19941;-87
2023/12/15 13:04:03;;;;;;;;;;;;;;;4.44;100.00;101607.94;4962827;28;20440;-86
2023/12/15 13:06:31;;;;;;;;;;;;;;;4.50;100.00;101608.91;4962593;28;19919;-87
2023/12/15 13:08:56;;;;;;;;;;;;;;;4.45;100.00;101605.34;4942404;29;19929;-89
2023/12/15 13:14:18;;;;;;;;;;;;;;;4.52;100.00;101612.41;4918464;29;19973;-89
2023/12/15 13:16:44;;;;;;;;;;;;;;;4.43;100.00;101611.44;4942216;29;19919;-88
2023/12/15 13:19:15;;;;;;;;;;;;;;;4.58;100.00;101615.97;4941002;29;19922;-91
2023/12/15 13:21:40;;;;;;;;;;;;;;;4.52;100.00;101619.41;4943636;29;19923;-90
2023/12/15 13:24:25;;;;;;;;;;;;;;;;;;;;;
2023/12/15 13:26:50;;;;;;;;;;;;;;;4.51;100.00;101615.03;4943052;29;19929;-89
2023/12/15 13:29:15;;;;;;;;;;;;;;;4.47;100.00;101614.13;4941949;29;19922;-91
2023/12/15 13:32:02;;;;;;;;;;;;;;;;;;;;;
2023/12/15 13:34:28;;;;;;;;;;;;;;;4.51;100.00;101615.88;4961936;28;19922;-89
2023/12/15 13:37:24;;;;;;;;;;;;;;;;;;;;;
2023/12/15 13:39:49;;;;;;;;;;;;;;;4.52;100.00;101604.53;4939551;28;20000;-86
2023/12/15 13:42:15;;;;;;;;;;;;;;;4.43;100.00;101606.19;4963702;28;20045;-93
2023/12/15 13:44:40;;;;;;;;;;;;;;;4.56;100.00;101594.94;4965184;28;19918;-87
2023/12/15 13:47:05;;;;;;;;;;;;;;;4.42;100.00;101584.31;4962253;28;19918;-91
2023/12/15 13:49:32;;;;;;;;;;;;;;;4.45;100.00;101583.44;4963400;28;20937;-89
2023/12/15 13:51:57;;;;;;;;;;;;;;;4.54;100.00;101579.16;4962894;28;19918;-89
2023/12/15 13:54:33;;;;;;;;;;;;;;;4.48;100.00;101576.50;4962875;28;20017;-89
2023/12/15 13:57:03;;;;;;;;;;;;;;;4.37;100.00;101583.34;4976907;28;19922;-88
2023/12/15 13:59:28;;;;;;;;;;;;;;;4.51;100.00;101578.25;4969177;28;19919;-89
2023/12/15 14:01:53;;;;;;;;;;;;;;;4.51;100.00;101573.88;4962157;28;20336;-87
2023/12/15 14:04:19;;;;;;;;;;;;;;;4.54;100.00;101584.41;4962588;28;20393;-88
2023/12/15 14:06:48;;;;;;;;;;;;;;;4.52;100.00;101588.78;4961998;28;19914;-87
2023/12/15 14:09:13;;;;;;;;;;;;;;;4.52;100.00;101578.28;4962176;28;19926;-87
2023/12/15 14:11:42;;;;;;;;;;;;;;;4.52;100.00;101580.03;4963484;28;19968;-90
2023/12/15 14:14:07;;;;;;;;;;;;;;;4.60;100.00;101581.00;4962465;28;19914;-84
2023/12/15 14:16:33;;;;;;;;;;;;;;;4.65;100.00;101575.78;4963562;28;19924;-87
2023/12/15 14:19:52;;;;;;;;;;;;;;;;;;;;;
2023/12/15 14:22:15;;;;;;;;;;;;;;;4.47;100.00;101558.13;4933058;28;19973;-93
2023/12/15 14:24:46;;;;;;;;;;;;;;;4.41;100.00;101545.78;4961522;28;19965;-89
2023/12/15 14:27:11;;;;;;;;;;;;;;;4.49;100.00;101553.75;4962485;28;19922;-87
2023/12/15 14:29:36;;;;;;;;;;;;;;;4.46;100.00;101559.84;4963391;28;19977;-86
2023/12/15 14:32:02;;;;;;;;;;;;;;;4.55;100.00;101580.94;4962207;28;19923;-91
2023/12/15 14:34:27;;;;;;;;;;;;;;;4.38;100.00;101613.13;4962849;28;20313;-87
2023/12/15 14:36:52;;;;;;;;;;;;;;;4.48;100.00;101626.38;4962769;28;19923;-91
2023/12/15 14:42:22;;;;;;;;;;;;;;;4.61;100.00;101624.78;4962789;28;20353;-91
2023/12/15 14:44:47;;;;;;;;;;;;;;;4.48;100.00;101623.75;4962937;28;19926;-90
2023/12/15 14:47:12;;;;;;;;;;;;;;;4.63;100.00;101636.16;4961717;28;19922;-88
2023/12/15 14:49:38;;;;;;;;;;;;;;;4.51;100.00;101641.28;4964151;28;19918;-90
2023/12/15 14:52:05;;;;;;;;;;;;;;;4.48;100.00;101642.13;4963277;28;19918;-94
2023/12/15 14:54:33;;;;;;;;;;;;;;;4.42;100.00;101639.44;4964027;28;20290;-91
2023/12/15 14:56:58;;;;;;;;;;;;;;;4.52;100.00;101616.78;4966480;28;19966;-85
2023/12/15 14:59:25;;;;;;;;;;;;;;;4.35;100.00;101627.09;4966430;28;19930;-83
2023/12/15 15:01:51;;;;;;;;;;;;;;;4.40;100.00;101627.16;4964882;28;19926;-87
2023/12/15 15:04:21;;;;;;;;;;;;;;;4.39;100.00;101634.16;4964050;28;20024;-91
2023/12/15 15:06:49;;;;;;;;;;;;;;;4.47;100.00;101635.13;4964262;28;20467;-86
2023/12/15 15:09:18;;;;;;;;;;;;;;;4.42;100.00;101644.69;4964176;28;19926;-85
2023/12/15 15:11:43;;;;;;;;;;;;;;;4.46;100.00;101661.34;4966733;28;19988;-83
2023/12/15 15:14:08;;;;;;;;;;;;;;;4.46;100.00;101664.84;4966240;28;20366;-85
2023/12/15 15:16:34;;;;;;;;;;;;;;;4.47;100.00;101655.25;4965908;28;19919;-86
2023/12/15 15:18:59;;;;;;;;;;;;;;;4.35;100.00;101653.34;4964945;28;19918;-85
2023/12/15 15:21:26;;;;;;;;;;;;;;;4.35;100.00;101648.94;4966468;28;19923;-87
2023/12/15 15:24:09;;;;;;;;;;;;;;;4.50;100.00;101653.53;4966136;28;20350;-90
2023/12/15 15:26:35;;;;;;;;;;;;;;;4.43;100.00;101653.44;4964266;28;19925;-88
2023/12/15 15:29:20;;;;;;;;;;;;;;;4.49;100.00;101640.38;4965824;28;19922;-90
2023/12/15 15:31:46;;;;;;;;;;;;;;;4.38;100.00;101627.13;4953241;28;20067;-87
2023/12/15 15:34:11;;;;;;;;;;;;;;;4.49;100.00;101643.88;4954312;28;20488;-87
2023/12/15 15:36:39;;;;;;;;;;;;;;;4.41;100.00;101658.66;4937638;29;19923;-87
2023/12/15 15:39:04;;;;;;;;;;;;;;;4.47;100.00;101669.25;4953877;28;19925;-88
2023/12/15 15:41:30;;;;;;;;;;;;;;;4.46;100.00;101663.97;4953648;28;19923;-87
2023/12/15 15:43:55;;;;;;;;;;;;;;;4.40;100.00;101672.63;4936750;28;19925;-86
2023/12/15 15:46:21;;;;;;;;;;;;;;;4.43;100.00;101659.56;4953838;29;20374;-87
2023/12/15 15:48:47;;;;;;;;;;;;;;;4.52;100.00;101659.66;4952372;28;20417;-88
2023/12/15 15:51:21;;;;;;;;;;;;;;;4.43;100.00;101659.56;4953531;28;20294;-88
2023/12/15 15:53:47;;;;;;;;;;;;;;;4.45;100.00;101673.59;4952696;29;19941;-88
2023/12/15 15:56:33;;;;;;;;;;;;;;;4.36;100.00;101684.84;4959099;28;19918;-91
2023/12/15 15:59:17;;;;;;;;;;;;;;;4.36;100.00;101700.59;4964603;28;19926;-87
2023/12/15 16:01:45;;;;;;;;;;;;;;;4.40;100.00;101701.50;4965270;28;19922;-90
2023/12/15 16:04:13;;;;;;;;;;;;;;;4.39;100.00;101723.38;4962831;28;20016;-87
2023/12/15 16:06:38;;;;;;;;;;;;;;;4.44;100.00;101724.31;4964283;28;19919;-88
2023/12/15 16:09:06;;;;;;;;;;;;;;;4.40;100.00;101717.25;4965127;28;20366;-91
2023/12/15 16:11:32;;;;;;;;;;;;;;;4.50;100.00;101719.16;4963730;28;19954;-88
2023/12/15 16:13:57;;;;;;;;;;;;;;;4.38;100.00;101726.88;4965428;28;19941;-87
2023/12/15 16:16:23;;;;;;;;;;;;;;;4.38;100.00;101721.63;4965163;28;19922;-93
2023/12/15 16:18:51;;;;;;;;;;;;;;;4.40;100.00;101726.88;4962662;28;20354;-90
2023/12/15 16:21:16;;;;;;;;;;;;;;;4.33;100.00;101726.81;4979936;28;19962;-86
2023/12/15 16:23:42;;;;;;;;;;;;;;;4.42;100.00;101728.69;4963759;28;19961;-88
2023/12/15 16:26:07;;;;;;;;;;;;;;;4.29;100.00;101739.84;4965403;28;19918;-87
2023/12/15 16:28:35;;;;;;;;;;;;;;;4.33;100.00;101744.31;4964070;28;20441;-90
2023/12/15 16:31:01;;;;;;;;;;;;;;;4.40;100.00;101759.25;4963857;28;19977;-89
2023/12/15 16:33:26;;;;;;;;;;;;;;;4.41;100.00;101760.16;4963311;28;19918;-89
2023/12/15 16:35:51;;;;;;;;;;;;;;;4.30;100.00;101766.13;4962608;28;20008;-89
2023/12/15 16:38:18;;;;;;;;;;;;;;;4.45;100.00;101773.34;4962697;28;19922;-86
2023/12/15 16:40:43;;;;;;;;;;;;;;;4.39;100.00;101773.25;4964999;28;19918;-85
2023/12/15 16:43:08;;;;;;;;;;;;;;;4.39;100.00;101778.50;4963120;28;20006;-90
2023/12/15 16:45:37;;;;;;;;;;;;;;;4.32;100.00;101771.41;4963318;28;19918;-86
2023/12/15 16:48:02;;;;;;;;;;;;;;;4.29;100.00;101763.47;4962143;28;19922;-89
2023/12/15 16:50:27;;;;;;;;;;;;;;;4.37;100.00;101756.59;4965629;28;20005;-86
2023/12/15 16:52:55;;;;;;;;;;;;;;;4.40;100.00;101759.25;4964657;28;19985;-89
2023/12/15 16:55:21;;;;;;;;;;;;;;;4.39;100.00;101757.50;4963100;28;19926;-88
2023/12/15 16:57:46;;;;;;;;;;;;;;;4.41;100.00;101762.78;4962333;28;20263;-85
2023/12/15 17:00:11;;;;;;;;;;;;;;;4.41;100.00;101774.16;4963973;28;20052;-85
2023/12/15 17:02:37;;;;;;;;;;;;;;;4.33;100.00;101775.78;4961842;28;19930;-87
2023/12/15 17:05:03;;;;;;;;;;;;;;;4.41;100.00;101782.03;4963902;28;19918;-87
2023/12/15 17:07:29;;;;;;;;;;;;;;;4.38;100.00;101776.75;4964938;28;19921;-87
2023/12/15 17:09:54;;;;;;;;;;;;;;;4.29;100.00;101781.84;4964530;28;19923;-85
2023/12/15 17:12:19;;;;;;;;;;;;;;;4.43;100.00;101787.31;4964614;28;19941;-88
2023/12/15 17:14:45;;;;;;;;;;;;;;;4.33;100.00;101783.66;4963086;28;19922;-88
2023/12/15 17:17:12;;;;;;;;;;;;;;;4.32;100.00;101790.66;4960159;28;19973;-90
2023/12/15 17:19:38;;;;;;;;;;;;;;;4.36;100.00;101794.22;4961840;28;19925;-87
2023/12/15 17:22:03;;;;;;;;;;;;;;;4.33;100.00;101794.16;4963389;28;20380;-93
2023/12/15 17:24:29;;;;;;;;;;;;;;;4.31;100.00;101788.03;4962668;28;20293;-90
2023/12/15 17:26:54;;;;;;;;;;;;;;;4.38;100.00;101782.00;4966818;28;19918;-88
2023/12/15 17:29:22;;;;;;;;;;;;;;;4.31;100.00;101785.41;4963688;28;19925;-88
2023/12/15 17:31:47;;;;;;;;;;;;;;;4.31;100.00;101785.41;4962181;28;19915;-89
2023/12/15 17:34:13;;;;;;;;;;;;;;;4.22;100.00;101774.75;4962712;28;19926;-90
2023/12/15 17:36:39;;;;;;;;;;;;;;;4.22;100.00;101780.00;4964359;28;19922;-88
2023/12/15 17:39:04;;;;;;;;;;;;;;;4.22;100.00;101795.75;4964524;28;20035;-89
2023/12/15 17:41:29;;;;;;;;;;;;;;;4.41;100.00;101807.41;4962901;28;19920;-88
2023/12/15 17:43:57;;;;;;;;;;;;;;;4.27;100.00;101807.19;4964740;28;20301;-84
2023/12/15 17:46:29;;;;;;;;;;;;;;;4.32;100.00;101809.03;4962977;28;19922;-84
2023/12/15 17:48:57;;;;;;;;;;;;;;;4.23;100.00;101819.41;4963105;28;19925;-89
2023/12/15 17:51:23;;;;;;;;;;;;;;;4.36;100.00;101831.84;4962700;28;19918;-93
2023/12/15 17:53:48;;;;;;;;;;;;;;;4.22;100.00;101822.88;4964451;28;19925;-88
2023/12/15 17:56:13;;;;;;;;;;;;;;;4.37;100.00;101819.59;4965760;28;19918;-93
2023/12/15 17:58:38;;;;;;;;;;;;;;;4.29;100.00;101816.88;4962768;28;20022;-88
2023/12/15 18:01:04;;;;;;;;;;;;;;;4.26;100.00;101823.78;4962720;28;19932;-92
2023/12/15 18:03:29;;;;;;;;;;;;;;;4.29;100.00;101830.00;4963103;28;20326;-86
2023/12/15 18:05:57;;;;;;;;;;;;;;;4.24;100.00;101831.63;4962935;28;19919;-87
2023/12/15 18:08:25;;;;;;;;;;;;;;;4.24;100.00;101826.38;4961868;28;19922;-89
2023/12/15 18:10:52;;;;;;;;;;;;;;;4.23;100.00;101829.88;4962074;28;19918;-90
2023/12/15 18:13:17;;;;;;;;;;;;;;;4.32;100.00;101824.78;4962998;28;19918;-90
2023/12/15 18:15:42;;;;;;;;;;;;;;;4.28;100.00;101816.84;4962166;28;19925;-91
2023/12/15 18:18:17;;;;;;;;;;;;;;;4.29;100.00;101808.09;4962255;28;19922;-89
2023/12/15 18:20:42;;;;;;;;;;;;;;;4.35;100.00;101793.31;4961744;28;19925;-92
2023/12/15 18:23:13;;;;;;;;;;;;;;;4.28;100.00;101790.59;4962742;28;20420;-89
2023/12/15 18:25:38;;;;;;;;;;;;;;;4.29;100.00;101808.09;4962864;28;20290;-91
2023/12/15 18:28:04;;;;;;;;;;;;;;;4.22;100.00;101816.75;4962457;28;19926;-94
2023/12/15 18:30:29;;;;;;;;;;;;;;;4.12;100.00;101807.84;4963714;28;19926;-90
2023/12/15 18:32:54;;;;;;;;;;;;;;;4.26;100.00;101808.94;4965639;28;19918;-89
2023/12/15 18:35:21;;;;;;;;;;;;;;;4.21;100.00;101821.09;4967168;28;20530;-96
2023/12/15 18:37:46;;;;;;;;;;;;;;;4.24;100.00;101830.75;4965682;28;20436;-89
2023/12/15 18:40:12;;;;;;;;;;;;;;;4.30;100.00;101842.25;4965889;28;19922;-87
2023/12/15 18:42:40;;;;;;;;;;;;;;;4.33;100.00;101836.16;4967945;28;19977;-86
2023/12/15 18:45:06;;;;;;;;;;;;;;;4.30;100.00;101841.38;4981404;28;19973;-90
2023/12/15 18:47:36;;;;;;;;;;;;;;;4.17;100.00;101848.16;4965498;28;20040;-89
2023/12/15 18:50:02;;;;;;;;;;;;;;;4.27;100.00;101857.06;4965766;28;20519;-87
2023/12/15 18:52:36;;;;;;;;;;;;;;;4.22;100.00;101859.59;4965772;28;19914;-89
2023/12/15 18:55:04;;;;;;;;;;;;;;;4.21;100.00;101863.06;4964006;28;19922;-87
2023/12/15 18:57:32;;;;;;;;;;;;;;;4.19;100.00;101872.69;4965619;28;19918;-86